Time;durP1;ratioP1;P1;durP2;ratioP2;P2;SDS_P1;SDS_P2;PMS_P1;PMS_P2;Temp;Humidity;BMP_temperature;BMP_pressure;BME280_temperature;BME280_humidity;BME280_pressure;Samples;Min_cycle;Max_cycle;Signal;HPM_P1;HPM_P2
2021/11/09 00:00:16;;;;;;;34.38;10.23;;;;;;;7.05;86.92;101420.00;1747502;82;20984;-80
2021/11/09 00:02:46;;;;;;;31.35;11.53;;;;;;;7.06;86.92;101418.20;1747291;82;20987;-80
2021/11/09 00:05:15;;;;;;;44.73;14.38;;;;;;;7.08;86.94;101421.08;1747667;82;21110;-80
2021/11/09 00:10:16;;;;;;;36.03;12.05;;;;;;;7.09;86.96;101423.25;1740470;82;21149;-81
2021/11/09 00:12:45;;;;;;;24.90;9.88;;;;;;;7.09;86.96;101428.08;1735470;82;21043;-81
2021/11/09 00:15:15;;;;;;;23.52;10.72;;;;;;;7.09;86.97;101421.45;1749671;82;21009;-81
2021/11/09 00:17:42;;;;;;;20.10;9.75;;;;;;;7.10;87.00;101423.14;1716827;82;21009;-81
2021/11/09 00:20:11;;;;;;;23.45;11.35;;;;;;;7.10;86.99;101413.86;1702029;83;21021;-81
2021/11/09 00:22:37;;;;;;;28.00;11.97;;;;;;;7.10;87.01;101421.82;1702256;84;21601;-81
2021/11/09 00:25:04;;;;;;;23.98;10.25;;;;;;;7.10;87.00;101424.47;1702179;83;21005;-81
2021/11/09 00:27:30;;;;;;;24.75;9.73;;;;;;;7.10;87.01;101429.78;1702377;83;21517;-81
2021/11/09 00:29:56;;;;;;;35.63;13.10;;;;;;;7.11;87.02;101437.25;1702130;84;21447;-81
2021/11/09 00:32:22;;;;;;;25.50;9.95;;;;;;;7.03;86.94;101428.58;1717864;82;21013;-81
2021/11/09 00:34:49;;;;;;;24.05;8.78;;;;;;;7.03;86.94;101428.58;1731500;82;22306;-81
2021/11/09 00:37:15;;;;;;;29.60;11.35;;;;;;;7.13;87.04;101449.42;1731076;82;21006;-81
2021/11/09 00:39:42;;;;;;;30.10;11.15;;;;;;;7.16;87.05;101446.52;1731577;82;21086;-81
2021/11/09 00:42:09;;;;;;;41.20;15.95;;;;;;;7.19;87.05;101451.58;1731345;82;21492;-81
2021/11/09 00:44:37;;;;;;;31.95;13.25;;;;;;;7.21;87.06;101456.30;1731556;82;21026;-81
2021/11/09 00:47:03;;;;;;;24.92;13.38;;;;;;;7.26;87.07;101454.09;1731420;82;21073;-81
2021/11/09 00:49:29;;;;;;;38.70;17.20;;;;;;;7.30;87.08;101456.87;1731345;82;20995;-81
2021/11/09 00:51:55;;;;;;;38.38;12.75;;;;;;;7.29;87.07;101455.17;1731607;82;21030;-81
2021/11/09 00:54:22;;;;;;;26.85;11.10;;;;;;;7.28;87.09;101461.44;1732636;82;21532;-81
2021/11/09 00:56:47;;;;;;;24.70;10.48;;;;;;;7.27;87.09;101458.45;1733255;82;21543;-81
2021/11/09 00:59:14;;;;;;;30.05;13.10;;;;;;;7.25;87.09;101467.00;1733245;82;21131;-81
2021/11/09 01:01:40;;;;;;;18.25;9.53;;;;;;;7.27;87.10;101470.87;1733177;82;21081;-81
2021/11/09 01:04:06;;;;;;;25.60;9.78;;;;;;;7.31;87.10;101471.84;1733255;82;20887;-81
2021/11/09 01:06:32;;;;;;;23.85;9.43;;;;;;;7.32;87.09;101468.20;1733255;82;21078;-81
2021/11/09 01:08:58;;;;;;;27.50;11.18;;;;;;;7.34;87.10;101473.39;1733234;82;21530;-81
2021/11/09 01:11:24;;;;;;;24.20;10.85;;;;;;;7.34;87.09;101473.39;1733190;82;21918;-81
2021/11/09 01:13:50;;;;;;;24.10;10.45;;;;;;;7.36;87.10;101474.95;1733193;82;20907;-81
2021/11/09 01:16:16;;;;;;;24.25;9.23;;;;;;;7.36;87.09;101472.30;1771603;80;20872;-81
2021/11/09 01:18:46;;;;;;;23.12;9.73;;;;;;;7.36;87.09;101476.27;1722788;83;21075;-81
2021/11/09 01:21:13;;;;;;;24.52;9.45;;;;;;;7.37;87.09;101477.97;1736486;82;26914;-81
2021/11/09 01:23:40;;;;;;;25.57;9.23;;;;;;;7.34;87.10;101477.37;1736230;81;21133;-81
2021/11/09 01:26:07;;;;;;;24.67;8.38;;;;;;;7.31;87.07;101479.80;1736681;82;21555;-81
2021/11/09 01:28:34;;;;;;;22.98;9.95;;;;;;;7.29;87.07;101478.20;1737766;81;21494;-81
2021/11/09 01:31:00;;;;;;;18.77;10.48;;;;;;;7.28;87.08;101476.03;1708586;84;21050;-81
2021/11/09 01:33:26;;;;;;;31.45;11.28;;;;;;;7.32;87.09;101484.11;1708584;83;21014;-81
2021/11/09 01:35:52;;;;;;;21.97;10.93;;;;;;;7.31;87.08;101492.22;1708567;83;21075;-81
2021/11/09 01:38:18;;;;;;;24.75;10.05;;;;;;;7.31;87.07;101489.56;1729971;82;21500;-81
2021/11/09 01:40:46;;;;;;;22.62;10.13;;;;;;;7.30;87.09;101483.41;1737865;82;21057;-81
2021/11/09 01:43:13;;;;;;;23.05;10.95;;;;;;;7.30;87.08;101488.72;1737808;82;21038;-81
2021/11/09 01:45:40;;;;;;;25.48;10.75;;;;;;;7.31;87.11;101487.75;1772760;80;21043;-81
2021/11/09 01:48:06;;;;;;;25.72;11.57;;;;;;;7.27;87.08;101488.96;1772591;81;21254;-81
2021/11/09 01:50:35;;;;;;;31.68;18.27;;;;;;;7.28;87.08;101495.12;1772791;81;21008;-81
2021/11/09 01:53:02;;;;;;;33.73;18.98;;;;;;;7.27;87.09;101500.91;1773190;81;28155;-81
2021/11/09 01:55:29;;;;;;;31.60;17.45;;;;;;;7.24;87.08;101497.17;1773141;81;21449;-81
2021/11/09 01:57:55;;;;;;;19.80;12.43;;;;;;;7.25;87.07;101496.66;1773153;81;21051;-81
2021/11/09 02:00:26;;;;;;;18.95;10.13;;;;;;;7.25;87.08;101492.20;1759227;81;21076;-81
2021/11/09 02:02:52;;;;;;;18.07;8.93;;;;;;;7.26;87.11;101495.23;1773555;80;21051;-81
2021/11/09 02:05:19;;;;;;;13.80;8.05;;;;;;;7.26;87.10;101495.23;1773560;80;21583;-81
2021/11/09 02:07:47;;;;;;;21.70;8.65;;;;;;;7.24;87.10;101494.52;1773746;80;21034;-81
2021/11/09 02:10:13;;;;;;;19.12;8.43;;;;;;;7.23;87.11;101496.80;1773794;80;21485;-81
2021/11/09 02:12:39;;;;;;;24.50;8.35;;;;;;;7.24;87.11;101497.17;1773371;80;22066;-81
2021/11/09 02:15:07;;;;;;;18.37;8.00;;;;;;;7.23;87.11;101500.78;1773146;80;21050;-81
2021/11/09 02:17:37;;;;;;;16.30;7.65;;;;;;;7.21;87.11;101508.50;1771780;81;21512;-81
2021/11/09 02:20:04;;;;;;;;;;;;;;;7.19;87.09;101509.94;1754793;80;21129;-81
2021/11/09 02:22:32;;;;;;;21.77;8.15;;;;;;;7.20;87.08;101518.75;1752741;81;20176;-81
2021/11/09 02:24:59;;;;;;;22.55;9.23;;;;;;;7.17;87.10;101517.19;1769071;81;21016;-81
2021/11/09 02:27:25;;;;;;;15.90;8.58;;;;;;;7.16;87.12;101520.80;1744363;81;20995;-81
2021/11/09 02:29:51;;;;;;;15.48;8.80;;;;;;;7.17;87.14;101519.84;1772636;81;20975;-81
2021/11/09 02:32:17;;;;;;;25.52;10.78;;;;;;;7.18;87.16;101521.51;1773075;80;21566;-81
2021/11/09 02:34:43;;;;;;;22.70;12.88;;;;;;;7.18;87.12;101524.67;1772992;81;21059;-81
2021/11/09 02:37:09;;;;;;;28.42;14.18;;;;;;;7.15;87.14;101528.37;1772895;81;21138;-81
2021/11/09 02:39:35;;;;;;;39.90;24.70;;;;;;;7.15;87.13;101530.19;1773008;81;20987;-81
2021/11/09 02:42:01;;;;;;;34.70;24.20;;;;;;;7.12;87.14;101530.43;1773112;80;20868;-81
2021/11/09 02:44:29;;;;;;;29.52;20.02;;;;;;;7.13;87.16;101531.65;1765575;81;21008;-81
2021/11/09 02:46:59;;;;;;;26.23;13.75;;;;;;;7.14;87.16;101528.05;1722763;82;21018;-81
2021/11/09 02:49:41;;;;;;;25.30;14.10;;;;;;;7.11;87.15;101533.56;1737228;82;21164;-81
2021/11/09 02:52:03;;;;;;;34.23;14.78;;;;;;;7.11;87.17;101534.89;1770661;81;21075;-81
2021/11/09 02:54:32;;;;;;;20.97;12.65;;;;;;;7.10;87.21;101533.22;1772396;81;21487;-81
2021/11/09 02:57:05;;;;;;;28.07;13.20;;;;;;;7.08;87.20;101532.95;1772425;81;21018;-81
2021/11/09 03:02:15;;;;;;;21.05;11.88;;;;;;;7.08;87.21;101543.09;1773024;80;22326;-81
2021/11/09 03:07:22;;;;;;;28.05;11.08;;;;;;;7.10;87.26;101550.46;1756002;81;21093;-81
2021/11/09 03:09:54;;;;;;;21.68;11.88;;;;;;;7.11;87.25;101553.97;1770718;81;21055;-81
2021/11/09 03:12:16;;;;;;;27.75;12.07;;;;;;;7.08;87.25;101556.34;1771722;81;20995;-81
2021/11/09 03:14:42;;;;;;;27.48;12.23;;;;;;;7.07;87.24;101558.66;1771167;81;21128;-81
2021/11/09 03:17:35;;;;;;;19.02;12.45;;;;;;;7.05;87.26;101559.24;1722305;83;21026;-81
2021/11/09 03:20:00;;;;;;;27.30;14.10;;;;;;;7.04;87.28;101560.20;1724595;82;21101;-81
2021/11/09 03:44:20;;;;;;;28.62;15.23;;;;;;;6.99;87.33;101587.57;1737952;82;21022;-81
2021/11/09 03:46:52;;;;;;;35.08;15.83;;;;;;;6.98;87.34;101597.33;1738245;82;21061;-80
2021/11/09 03:49:20;;;;;;;29.80;15.23;;;;;;;6.99;87.34;101599.03;1737958;82;21003;-79
2021/11/09 03:51:46;;;;;;;28.60;15.70;;;;;;;6.97;87.33;101598.76;1737976;82;21026;-80
2021/11/09 03:54:15;;;;;;;38.35;16.00;;;;;;;6.96;87.35;101605.05;1728943;82;21867;-80
2021/11/09 03:56:45;;;;;;;41.98;17.15;;;;;;;6.97;87.37;101601.41;1726194;83;21015;-79
2021/11/09 03:59:16;;;;;;;31.12;14.65;;;;;;;6.97;87.37;101606.23;1726830;83;21452;-79
2021/11/09 04:04:32;;;;;;;36.93;15.20;;;;;;;6.98;87.39;101610.59;1702371;83;21007;-79
2021/11/09 04:06:44;;;;;;;32.80;13.53;;;;;;;6.97;87.40;101610.69;1704934;83;21256;-79
2021/11/09 04:14:34;;;;;;;43.85;23.05;;;;;;;7.02;87.43;101616.50;1695384;84;21037;-79
2021/11/09 04:19:35;;;;;;;35.95;21.97;;;;;;;7.00;87.46;101622.42;1695362;84;21832;-79
2021/11/09 04:24:49;;;;;;;31.93;17.90;;;;;;;6.97;87.48;101622.63;1721877;83;21059;-79
2021/11/09 04:27:12;;;;;;;35.52;18.10;;;;;;;6.97;87.48;101629.26;1724425;82;21019;-79
2021/11/09 04:32:11;;;;;;;27.52;14.70;;;;;;;6.96;87.49;101623.61;1727533;83;21773;-79
2021/11/09 04:40:40;;;;;;;33.30;14.93;;;;;;;6.95;87.49;101637.34;1699046;83;21071;-79
2021/11/09 04:53:09;;;;;;;39.55;16.57;;;;;;;6.97;87.53;101643.37;1663444;83;21011;-78
2021/11/09 05:11:38;;;;;;;49.03;25.10;;;;;;;6.99;87.61;101664.48;1713341;83;21066;-81
2021/11/09 05:14:06;;;;;;;40.33;21.60;;;;;;;6.99;87.60;101675.09;1700656;84;21038;-81
2021/11/09 05:16:32;;;;;;;38.90;20.27;;;;;;;6.98;87.60;101676.04;1713343;83;21515;-81
2021/11/09 05:18:59;;;;;;;38.25;18.40;;;;;;;6.98;87.61;101681.34;1728708;83;21520;-81
2021/11/09 05:21:25;;;;;;;37.58;19.90;;;;;;;6.97;87.60;101676.99;1742825;82;21034;-80
2021/11/09 05:23:51;;;;;;;33.48;15.88;;;;;;;6.96;87.59;101681.95;1743059;82;21519;-81
2021/11/09 05:26:17;;;;;;;31.97;17.02;;;;;;;6.96;87.59;101689.91;1742741;82;20990;-80
2021/11/09 05:28:45;;;;;;;43.68;19.52;;;;;;;6.95;87.62;101685.55;1742901;81;20987;-81
2021/11/09 05:31:14;;;;;;;28.87;15.48;;;;;;;6.97;87.63;101690.25;1742902;82;21528;-81
2021/11/09 05:33:41;;;;;;;35.92;15.85;;;;;;;6.94;87.60;101697.97;1714896;81;21091;-81
2021/11/09 05:36:10;;;;;;;37.48;17.70;;;;;;;6.95;87.63;101704.13;1713506;82;21105;-79
2021/11/09 05:41:17;;;;;;;31.07;14.55;;;;;;;6.95;87.65;101708.09;1713307;83;21044;-80
2021/11/09 05:43:42;;;;;;;26.95;14.23;;;;;;;6.95;87.65;101704.13;1720814;82;21776;-80
2021/11/09 05:46:09;;;;;;;36.10;21.00;;;;;;;6.95;87.66;101708.95;1742973;82;21551;-81
2021/11/09 05:48:36;;;;;;;37.03;23.20;;;;;;;6.95;87.68;101722.69;1742905;81;21895;-80
2021/11/09 05:51:04;;;;;;;56.98;37.03;;;;;;;6.93;87.69;101728.59;1743004;82;21023;-81
2021/11/09 05:53:35;;;;;;;63.33;38.70;;;;;;;6.93;87.70;101729.41;1742516;82;21507;-80
2021/11/09 05:55:58;;;;;;;75.32;43.20;;;;;;;6.95;87.71;101737.27;1741276;82;21075;-81
2021/11/09 05:58:24;;;;;;;80.03;38.17;;;;;;;6.95;87.72;101746.08;1742890;81;21039;-80
2021/11/09 06:00:50;;;;;;;60.35;29.32;;;;;;;6.97;87.74;101748.59;1742701;81;21761;-80
2021/11/09 06:03:19;;;;;;;52.50;25.52;;;;;;;6.99;87.74;101753.33;1742901;82;20896;-80
2021/11/09 06:05:44;;;;;;;38.38;18.37;;;;;;;6.99;87.77;101750.67;1742832;82;21038;-80
2021/11/09 06:08:10;;;;;;;41.05;19.10;;;;;;;7.01;87.76;101758.87;1742920;82;21050;-80
2021/11/09 06:10:36;;;;;;;35.98;17.60;;;;;;;7.02;87.78;101760.58;1740655;82;21030;-80
2021/11/09 06:13:02;;;;;;;37.10;20.43;;;;;;;7.03;87.80;101766.25;1742901;82;21139;-80
2021/11/09 06:15:28;;;;;;;47.53;18.35;;;;;;;7.04;87.81;101773.23;1742824;82;21515;-80
2021/11/09 06:17:54;;;;;;;45.17;20.62;;;;;;;7.04;87.82;101775.03;1742797;82;21043;-80
2021/11/09 06:20:20;;;;;;;52.23;23.30;;;;;;;7.06;87.82;101783.73;1742950;82;21002;-80
2021/11/09 06:22:46;;;;;;;52.30;21.70;;;;;;;7.08;87.84;101786.26;1724745;81;21055;-80
2021/11/09 06:25:12;;;;;;;49.75;20.50;;;;;;;7.07;87.82;101791.22;1711790;82;21156;-80
2021/11/09 06:27:38;;;;;;;32.88;17.12;;;;;;;7.06;87.85;101790.37;1719282;82;20999;-80
2021/11/09 06:30:05;;;;;;;40.00;15.98;;;;;;;7.08;87.84;101800.38;1739422;82;20975;-80
2021/11/09 06:32:31;;;;;;;27.13;14.03;;;;;;;7.10;87.84;101801.12;1712511;82;21365;-81
2021/11/09 06:34:58;;;;;;;36.55;14.07;;;;;;;7.11;87.88;101805.45;1739846;82;21010;-81
2021/11/09 06:37:24;;;;;;;36.30;16.40;;;;;;;7.11;87.89;101804.12;1742897;82;21354;-80
2021/11/09 06:39:51;;;;;;;37.08;15.63;;;;;;;7.14;87.90;101808.38;1732740;81;20999;-80
2021/11/09 06:42:17;;;;;;;34.98;14.87;;;;;;;7.18;87.92;101821.28;1724280;82;21121;-80
2021/11/09 06:44:43;;;;;;;34.85;17.25;;;;;;;7.23;87.90;101821.80;1731006;82;21031;-80
2021/11/09 06:47:09;;;;;;;30.32;14.87;;;;;;;7.27;87.93;101830.37;1742754;82;21023;-81
2021/11/09 06:49:35;;;;;;;31.37;16.00;;;;;;;7.27;87.96;101832.55;1742293;81;21078;-81
2021/11/09 06:52:01;;;;;;;30.23;14.25;;;;;;;7.29;87.95;101835.08;1742941;81;21006;-80
2021/11/09 06:54:28;;;;;;;40.28;18.23;;;;;;;7.26;87.93;101840.14;1749782;81;21006;-80
2021/11/09 06:56:54;;;;;;;34.60;15.50;;;;;;;7.26;87.95;101845.45;1759573;81;21011;-80
2021/11/09 06:59:21;;;;;;;28.98;14.85;;;;;;;7.24;87.95;101855.34;1773190;81;21011;-81
2021/11/09 07:01:48;;;;;;;35.68;15.78;;;;;;;7.24;87.92;101867.28;1756744;81;21121;-81
2021/11/09 07:04:14;;;;;;;35.03;15.28;;;;;;;7.23;87.94;101868.70;1727388;81;21578;-80
2021/11/09 07:06:40;;;;;;;49.53;15.68;;;;;;;7.23;87.92;101872.69;1772770;80;20999;-80
2021/11/09 07:09:06;;;;;;;32.25;15.10;;;;;;;7.20;87.92;101871.11;1773563;80;21059;-81
2021/11/09 07:11:33;;;;;;;31.62;14.03;;;;;;;7.18;87.92;101874.34;1771900;80;21078;-80
2021/11/09 07:13:59;;;;;;;32.80;13.15;;;;;;;7.18;87.90;101878.31;1759157;81;21656;-80
2021/11/09 07:16:26;;;;;;;30.90;12.60;;;;;;;7.17;87.91;101883.28;1752337;81;20999;-80
2021/11/09 07:18:58;;;;;;;31.75;13.60;;;;;;;7.16;87.90;101878.92;1763416;81;21082;-81
2021/11/09 07:21:20;;;;;;;32.03;13.85;;;;;;;7.18;87.90;101879.64;1762324;81;21646;-80
2021/11/09 07:23:46;;;;;;;37.45;13.35;;;;;;;7.18;87.92;101884.95;1745377;80;21078;-80
2021/11/09 07:26:12;;;;;;;38.88;13.50;;;;;;;7.20;87.90;101889.69;1750043;81;21314;-80
2021/11/09 07:28:38;;;;;;;32.93;13.15;;;;;;;7.18;87.93;101890.25;1746050;81;21043;-80
2021/11/09 07:31:05;;;;;;;38.05;14.60;;;;;;;7.21;87.90;101900.67;1751228;81;21649;-81
2021/11/09 07:33:32;;;;;;;22.60;11.68;;;;;;;7.24;87.94;101897.79;1762403;80;21801;-81
2021/11/09 07:35:58;;;;;;;32.05;12.55;;;;;;;7.26;87.93;101906.47;1752753;80;20979;-80
2021/11/09 07:38:24;;;;;;;26.60;12.28;;;;;;;7.27;87.91;101905.52;1761264;80;21188;-80
2021/11/09 07:40:50;;;;;;;49.25;17.73;;;;;;;7.29;87.87;101912.88;1759062;80;21023;-81
2021/11/09 07:43:17;;;;;;;30.82;13.30;;;;;;;7.31;87.91;101912.31;1748005;80;21003;-81
2021/11/09 07:45:43;;;;;;;28.02;12.07;;;;;;;7.35;87.92;101912.93;1757224;80;21011;-80
2021/11/09 07:48:10;;;;;;;28.73;12.58;;;;;;;7.39;87.91;101920.53;1760293;80;20996;-81
2021/11/09 07:50:36;;;;;;;40.95;19.35;;;;;;;7.37;87.93;101926.45;1749737;80;21221;-81
2021/11/09 07:53:04;;;;;;;40.98;22.70;;;;;;;7.38;87.93;101930.80;1753111;80;21055;-80
2021/11/09 07:55:38;;;;;;;45.85;23.80;;;;;;;7.42;87.91;101936.73;1756197;80;20999;-82
2021/11/09 07:58:04;;;;;;;46.83;28.30;;;;;;;7.43;87.92;101935.75;1762599;80;20991;-81
2021/11/09 08:00:35;;;;;;;42.50;22.00;;;;;;;7.44;87.91;101934.33;1757105;80;21050;-82
2021/11/09 08:03:09;;;;;;;49.00;24.25;;;;;;;7.47;87.90;101942.06;1759879;81;21196;-81
2021/11/09 08:05:39;;;;;;;44.25;30.25;;;;;;;7.48;87.87;101941.11;1751113;81;21098;-82
2021/11/09 08:08:12;;;;;;;47.80;28.45;;;;;;;7.53;87.88;101944.26;1721893;81;21011;-81
2021/11/09 08:10:35;;;;;;;29.98;19.20;;;;;;;7.56;87.87;101951.17;1745578;80;21050;-82
2021/11/09 08:13:01;;;;;;;37.85;19.40;;;;;;;7.57;87.85;101954.64;1766320;81;21464;-81
2021/11/09 08:15:28;;;;;;;31.52;19.92;;;;;;;7.53;87.85;101958.00;1747864;81;21123;-82
2021/11/09 08:17:54;;;;;;;40.10;22.67;;;;;;;7.54;87.84;101959.23;1746689;81;21070;-82
2021/11/09 08:20:20;;;;;;;44.48;28.85;;;;;;;7.58;87.85;101962.98;1745378;81;21022;-82
2021/11/09 08:22:46;;;;;;;75.72;44.60;;;;;;;7.62;87.85;101968.45;1741335;80;21472;-81
2021/11/09 08:25:13;;;;;;;29.18;16.70;;;;;;;7.65;87.82;101973.53;1754400;81;20973;-81
2021/11/09 08:27:40;;;;;;;30.75;14.47;;;;;;;7.68;87.80;101971.49;1768532;80;21179;-80
2021/11/09 08:30:07;;;;;;;22.73;14.18;;;;;;;7.75;87.75;101977.20;1765320;80;21470;-80
2021/11/09 08:32:33;;;;;;;26.55;12.88;;;;;;;7.76;87.73;101977.58;1765080;80;21011;-81
2021/11/09 08:35:00;;;;;;;24.80;12.75;;;;;;;7.76;87.72;101978.91;1759258;81;20892;-82
2021/11/09 08:37:26;;;;;;;25.27;12.88;;;;;;;7.76;87.73;101982.89;1748849;80;21050;-81
2021/11/09 08:39:53;;;;;;;31.90;14.87;;;;;;;7.80;87.73;101983.03;1754103;81;21175;-80
2021/11/09 08:42:25;;;;;;;31.50;15.72;;;;;;;7.91;87.74;101992.39;1730741;82;21034;-80
2021/11/09 08:44:51;;;;;;;24.72;13.50;;;;;;;7.96;87.72;101989.74;1757245;80;21031;-80
2021/11/09 08:47:18;;;;;;;26.42;15.23;;;;;;;7.97;87.72;101996.76;1756500;80;21495;-81
2021/11/09 08:49:43;;;;;;;29.65;13.53;;;;;;;8.02;87.70;101997.25;1759350;80;21507;-81
2021/11/09 08:52:13;;;;;;;25.55;12.20;;;;;;;8.08;87.69;102003.08;1737079;80;21873;-80
2021/11/09 08:54:47;;;;;;;20.88;12.58;;;;;;;8.10;87.68;102008.64;1739436;81;21486;-81
2021/11/09 08:57:20;;;;;;;25.57;14.23;;;;;;;8.13;87.65;102008.91;1765442;81;21063;-81
2021/11/09 09:05:09;;;;;;;33.08;17.05;;;;;;;8.14;87.58;102018.08;1753995;80;22300;-79
2021/11/09 09:07:35;;;;;;;32.13;18.98;;;;;;;8.19;87.57;102021.73;1774859;80;20992;-80
2021/11/09 09:10:08;;;;;;;28.23;14.95;;;;;;;8.21;87.54;102021.97;1763383;80;21586;-80
2021/11/09 09:12:35;;;;;;;33.10;20.43;;;;;;;8.24;87.50;102021.73;1762866;80;21014;-80
2021/11/09 09:15:03;;;;;;;25.12;15.28;;;;;;;8.26;87.46;102029.13;1772264;80;21014;-80
2021/11/09 09:17:30;;;;;;;32.25;17.20;;;;;;;8.26;87.44;102031.79;1759023;80;21137;-81
2021/11/09 09:20:06;;;;;;;43.87;20.72;;;;;;;8.29;87.42;102031.59;1764141;80;21483;-81
2021/11/09 09:22:30;;;;;;;32.73;17.52;;;;;;;8.35;87.40;102034.25;1769162;80;21082;-81
2021/11/09 09:29:59;;;;;;;30.72;17.32;;;;;;;8.37;87.29;102038.48;1760912;80;21120;-81
2021/11/09 09:32:54;;;;;;;31.52;14.85;;;;;;;8.36;87.27;102042.12;1763466;80;21039;-80
2021/11/09 09:54:43;;;;;;;24.10;15.00;;;;;;;8.64;86.96;102054.66;1779215;80;20995;-82
2021/11/09 09:56:59;;;;;;;27.25;16.10;;;;;;;8.65;86.91;102047.05;1774140;80;21204;-81
2021/11/09 09:59:30;;;;;;;28.30;14.30;;;;;;;8.68;86.86;102057.45;1762776;80;21024;-81
2021/11/09 10:02:24;;;;;;;18.92;12.20;;;;;;;8.67;86.80;102049.09;1753331;80;33644;-81
2021/11/09 10:05:07;;;;;;;24.40;13.72;;;;;;;8.64;86.79;102055.51;1770701;80;21098;-81
2021/11/09 10:07:42;;;;;;;25.72;13.25;;;;;;;8.66;86.76;102048.24;1763776;80;21075;-82
2021/11/09 10:10:17;;;;;;;28.30;14.33;;;;;;;8.74;86.67;102050.32;1760825;80;21814;-81
2021/11/09 10:12:45;;;;;;;23.02;12.65;;;;;;;8.86;86.64;102053.38;1764184;80;21373;-81
2021/11/09 10:15:18;;;;;;;23.92;12.28;;;;;;;8.87;86.62;102049.73;1759609;80;21022;-81
2021/11/09 10:17:49;;;;;;;25.17;11.97;;;;;;;8.85;86.60;102047.21;1771914;80;21504;-82
2021/11/09 10:20:22;;;;;;;36.40;13.65;;;;;;;8.84;86.57;102060.61;1746681;81;21084;-83
2021/11/09 10:22:52;;;;;;;26.23;13.18;;;;;;;8.87;86.55;102056.39;1740724;81;21567;-81
2021/11/09 10:25:20;;;;;;;22.85;12.45;;;;;;;8.87;86.46;102052.39;1731406;81;20997;-83
2021/11/09 10:27:48;;;;;;;25.92;14.00;;;;;;;8.90;86.44;102058.84;1706436;82;21094;-83
2021/11/09 10:30:22;;;;;;;23.83;14.55;;;;;;;8.96;86.43;102058.35;1765557;80;21063;-83
2021/11/09 10:32:48;;;;;;;36.35;19.62;;;;;;;9.02;86.38;102062.71;1737721;81;21108;-83
2021/11/09 10:35:17;;;;;;;32.78;19.15;;;;;;;9.04;86.32;102064.76;1738459;81;21141;-81
2021/11/09 10:37:51;;;;;;;33.73;19.37;;;;;;;9.09;86.27;102056.42;1727007;82;20998;-81
2021/11/09 10:40:24;;;;;;;33.60;17.40;;;;;;;9.13;86.22;102055.22;1747944;81;21043;-81
2021/11/09 10:42:54;;;;;;;28.12;17.50;;;;;;;9.13;86.17;102059.70;1750010;81;21058;-81
2021/11/09 10:45:23;;;;;;;31.40;17.48;;;;;;;9.20;86.14;102061.76;1748457;80;21043;-80
2021/11/09 10:47:52;;;;;;;28.42;18.12;;;;;;;9.21;86.12;102058.14;1744195;81;21359;-81
2021/11/09 10:50:38;;;;;;;32.48;17.98;;;;;;;9.23;86.03;102060.19;1758962;80;20988;-81
2021/11/09 10:53:28;;;;;;;33.23;18.65;;;;;;;9.28;85.94;102058.50;1740522;81;21034;-81
2021/11/09 11:04:05;;;;;;;21.07;11.75;;;;;;;9.57;85.75;102051.69;1752656;81;21014;-81
2021/11/09 11:06:36;;;;;;;20.70;12.78;;;;;;;9.59;85.67;102046.25;1753736;80;21024;-81
2021/11/09 11:09:17;;;;;;;20.62;12.30;;;;;;;9.67;85.62;102050.48;1725689;83;21034;-81
2021/11/09 11:11:46;;;;;;;22.27;12.43;;;;;;;9.73;85.57;102051.31;1759678;80;21059;-82
2021/11/09 11:14:19;;;;;;;18.30;13.00;;;;;;;9.78;85.53;102041.14;1728837;81;25944;-81
2021/11/09 11:17:00;;;;;;;26.90;14.10;;;;;;;9.85;85.45;102045.00;1746474;81;21058;-81
2021/11/09 11:19:33;;;;;;;23.05;12.63;;;;;;;9.82;85.33;102042.56;1746561;81;21040;-80
2021/11/09 11:22:01;;;;;;;25.80;13.95;;;;;;;9.83;85.28;102041.59;1751412;80;21079;-79
2021/11/09 11:24:27;;;;;;;21.65;11.78;;;;;;;9.87;85.19;102040.38;1747136;81;21007;-80
2021/11/09 11:26:55;;;;;;;20.12;10.40;;;;;;;9.85;85.07;102039.67;1731059;81;21139;-79
2021/11/09 11:29:31;;;;;;;24.98;12.03;;;;;;;9.85;85.00;102051.16;1761784;80;20995;-80
2021/11/09 11:31:57;;;;;;;24.07;13.93;;;;;;;9.79;84.94;102048.14;1751668;81;21555;-80
2021/11/09 11:34:26;;;;;;;23.62;13.70;;;;;;;9.78;84.93;102048.62;1753097;80;21035;-79
2021/11/09 11:36:52;;;;;;;22.40;13.58;;;;;;;9.83;84.86;102054.92;1751092;80;21066;-81
2021/11/09 11:39:22;;;;;;;26.00;15.85;;;;;;;9.85;84.75;102050.33;1761519;80;21161;-81
2021/11/09 11:41:54;;;;;;;23.90;14.45;;;;;;;9.88;84.66;102046.08;1733543;80;21001;-81
2021/11/09 11:44:23;;;;;;;34.50;18.25;;;;;;;9.91;84.59;102056.01;1753037;80;21000;-82
2021/11/09 11:46:53;;;;;;;31.35;18.55;;;;;;;9.93;84.50;102051.87;1748999;81;21074;-81
2021/11/09 11:49:31;;;;;;;34.20;18.23;;;;;;;9.94;84.42;102053.56;1741950;81;21082;-81
2021/11/09 11:52:04;;;;;;;34.43;17.73;;;;;;;9.95;84.36;102053.94;1748983;81;21270;-80
2021/11/09 11:54:44;;;;;;;26.87;16.90;;;;;;;9.94;84.25;102056.23;1749582;81;21479;-80
2021/11/09 11:57:11;;;;;;;31.85;22.93;;;;;;;9.92;84.19;102060.86;1753551;81;21019;-80
2021/11/09 11:59:40;;;;;;;32.78;19.12;;;;;;;9.85;84.14;102053.00;1727860;81;21003;-80
2021/11/09 12:02:09;;;;;;;29.63;20.15;;;;;;;9.84;84.05;102053.96;1749939;80;21382;-80
2021/11/09 12:04:47;;;;;;;33.00;19.07;;;;;;;9.87;83.98;102055.04;1763743;80;21134;-80
2021/11/09 12:07:15;;;;;;;29.63;17.67;;;;;;;9.83;83.93;102065.10;1756161;80;21082;-80
2021/11/09 12:09:43;;;;;;;28.52;18.77;;;;;;;9.72;83.87;102062.94;1772339;81;20988;-80
2021/11/09 12:12:21;;;;;;;40.23;22.13;;;;;;;9.69;83.77;102068.52;1753842;81;21499;-80
2021/11/09 12:15:04;;;;;;;27.27;17.90;;;;;;;9.71;83.66;102064.74;1754163;81;20999;-80
2021/11/09 12:17:38;;;;;;;24.55;15.58;;;;;;;9.75;83.56;102062.68;1753635;81;22174;-80
2021/11/09 12:20:15;;;;;;;24.60;15.65;;;;;;;9.76;83.46;102062.57;1753660;80;21271;-80
2021/11/09 12:22:49;;;;;;;25.62;18.62;;;;;;;9.72;83.41;102052.27;1753072;80;21003;-80
2021/11/09 12:25:27;;;;;;;31.70;19.27;;;;;;;9.75;83.35;102057.35;1759054;80;21000;-80
2021/11/09 12:27:57;;;;;;;28.47;16.37;;;;;;;9.78;83.25;102049.14;1763201;80;21091;-80
2021/11/09 12:30:39;;;;;;;28.87;15.88;;;;;;;9.86;83.19;102052.00;1751556;80;22347;-80
2021/11/09 12:33:38;;;;;;;28.02;15.32;;;;;;;9.88;83.10;102048.27;1755766;81;21066;-81
2021/11/09 12:36:06;;;;;;;28.85;15.10;;;;;;;9.94;83.05;102056.23;1748302;80;21019;-82
2021/11/09 12:38:44;;;;;;;39.90;19.85;;;;;;;9.99;82.96;102055.39;1742541;81;21972;-81
2021/11/09 12:41:19;;;;;;;33.48;19.52;;;;;;;9.99;82.89;102060.72;1748675;81;21056;-81
2021/11/09 12:43:53;;;;;;;24.63;13.98;;;;;;;10.01;82.86;102054.28;1749539;81;21408;-80
2021/11/09 12:46:39;;;;;;;27.20;15.55;;;;;;;10.04;82.83;102053.17;1752436;81;21094;-81
2021/11/09 12:49:14;;;;;;;49.73;24.32;;;;;;;10.02;82.79;102052.47;1749286;80;21052;-81
2021/11/09 12:51:42;;;;;;;21.90;14.18;;;;;;;10.11;82.68;102053.52;1726567;81;21036;-81
2021/11/09 12:54:27;;;;;;;26.62;13.70;;;;;;;10.12;82.59;102055.21;1748523;81;21042;-81
2021/11/09 12:56:59;;;;;;;18.55;11.97;;;;;;;10.03;82.53;102043.47;1760439;80;22020;-80
2021/11/09 13:02:17;;;;;;;18.98;11.70;;;;;;;9.92;82.42;102043.53;1759766;80;21013;-82
2021/11/09 13:09:50;;;;;;;50.28;22.58;;;;;;;9.85;82.22;102047.67;1769118;80;21113;-81
2021/11/09 13:12:23;;;;;;;23.42;13.20;;;;;;;9.89;82.16;102043.75;1763780;80;21578;-81
2021/11/09 13:14:59;;;;;;;23.70;11.63;;;;;;;9.91;82.08;102041.83;1769026;80;21515;-81
2021/11/09 13:17:33;;;;;;;20.43;11.18;;;;;;;9.92;82.06;102040.87;1767641;80;21441;-79
2021/11/09 13:23:05;;;;;;;28.98;13.75;;;;;;;9.85;81.95;102041.83;1768040;80;21665;-81
2021/11/09 13:25:55;;;;;;;36.38;20.92;;;;;;;9.85;81.86;102043.67;1766890;80;21026;-80
2021/11/09 13:28:33;;;;;;;39.78;18.95;;;;;;;9.80;81.78;102048.03;1768512;80;21023;-81
2021/11/09 13:31:09;;;;;;;30.57;14.50;;;;;;;9.74;81.68;102043.21;1774850;80;21704;-81
2021/11/09 13:33:41;;;;;;;26.85;13.50;;;;;;;9.70;81.62;102043.58;1763932;80;21074;-80